sensor_id;sensor_type;location;lat;lon;timestamp;temperature;humidity
64652;HTU21D;51062;45.120;37.660;2023-12-22T00:01:26;11.63;95.78
64652;HTU21D;51062;45.120;37.660;2023-12-22T00:03:52;11.63;95.81
64652;HTU21D;51062;45.120;37.660;2023-12-22T00:06:18;11.67;95.83
64652;HTU21D;51062;45.120;37.660;2023-12-22T00:08:44;11.67;95.84
64652;HTU21D;51062;45.120;37.660;2023-12-22T00:11:10;11.66;95.80
64652;HTU21D;51062;45.120;37.660;2023-12-22T00:13:35;11.64;95.84
64652;HTU21D;51062;45.120;37.660;2023-12-22T00:16:01;11.63;95.84
64652;HTU21D;51062;45.120;37.660;2023-12-22T00:18:27;11.60;95.78
64652;HTU21D;51062;45.120;37.660;2023-12-22T00:20:53;11.60;95.81
64652;HTU21D;51062;45.120;37.660;2023-12-22T00:23:19;11.59;95.76
64652;HTU21D;51062;45.120;37.660;2023-12-22T00:25:45;11.57;95.75
64652;HTU21D;51062;45.120;37.660;2023-12-22T00:28:10;11.56;95.70
64652;HTU21D;51062;45.120;37.660;2023-12-22T00:30:36;11.55;95.67
64652;HTU21D;51062;45.120;37.660;2023-12-22T00:33:02;11.56;95.71
64652;HTU21D;51062;45.120;37.660;2023-12-22T00:35:28;11.57;95.65
64652;HTU21D;51062;45.120;37.660;2023-12-22T00:37:54;11.54;95.55
64652;HTU21D;51062;45.120;37.660;2023-12-22T00:40:20;11.48;95.43
64652;HTU21D;51062;45.120;37.660;2023-12-22T00:42:45;11.45;95.37
64652;HTU21D;51062;45.120;37.660;2023-12-22T00:45:11;11.44;95.33
64652;HTU21D;51062;45.120;37.660;2023-12-22T00:47:37;11.43;95.31
64652;HTU21D;51062;45.120;37.660;2023-12-22T00:50:03;11.46;95.41
64652;HTU21D;51062;45.120;37.660;2023-12-22T00:52:30;11.53;95.53
64652;HTU21D;51062;45.120;37.660;2023-12-22T00:54:56;11.59;95.58
64652;HTU21D;51062;45.120;37.660;2023-12-22T00:57:22;11.62;95.60
64652;HTU21D;51062;45.120;37.660;2023-12-22T00:59:48;11.61;95.55
64652;HTU21D;51062;45.120;37.660;2023-12-22T01:02:14;11.58;95.42
64652;HTU21D;51062;45.120;37.660;2023-12-22T01:04:40;11.53;95.28
64652;HTU21D;51062;45.120;37.660;2023-12-22T01:07:09;11.46;95.07
64652;HTU21D;51062;45.120;37.660;2023-12-22T01:09:35;11.40;94.88
64652;HTU21D;51062;45.120;37.660;2023-12-22T01:12:02;11.34;94.81
64652;HTU21D;51062;45.120;37.660;2023-12-22T01:14:32;11.30;94.68
64652;HTU21D;51062;45.120;37.660;2023-12-22T01:16:57;11.26;94.59
64652;HTU21D;51062;45.120;37.660;2023-12-22T01:19:25;11.26;94.65
64652;HTU21D;51062;45.120;37.660;2023-12-22T01:21:51;11.26;94.65
64652;HTU21D;51062;45.120;37.660;2023-12-22T01:24:17;11.23;94.47
64652;HTU21D;51062;45.120;37.660;2023-12-22T01:26:43;11.19;94.37
64652;HTU21D;51062;45.120;37.660;2023-12-22T01:29:08;11.18;94.42
64652;HTU21D;51062;45.120;37.660;2023-12-22T01:31:34;11.16;94.40
64652;HTU21D;51062;45.120;37.660;2023-12-22T01:34:00;11.15;94.40
64652;HTU21D;51062;45.120;37.660;2023-12-22T01:36:26;11.11;94.19
64652;HTU21D;51062;45.120;37.660;2023-12-22T01:38:52;11.09;94.15
64652;HTU21D;51062;45.120;37.660;2023-12-22T01:41:17;11.05;94.09
64652;HTU21D;51062;45.120;37.660;2023-12-22T01:43:43;11.03;94.06
64652;HTU21D;51062;45.120;37.660;2023-12-22T01:46:09;11.02;94.06
64652;HTU21D;51062;45.120;37.660;2023-12-22T01:48:35;11.01;93.98
64652;HTU21D;51062;45.120;37.660;2023-12-22T01:51:01;11.00;94.03
64652;HTU21D;51062;45.120;37.660;2023-12-22T01:53:28;10.98;94.01
64652;HTU21D;51062;45.120;37.660;2023-12-22T01:55:54;10.98;94.03
64652;HTU21D;51062;45.120;37.660;2023-12-22T01:58:22;10.97;93.96
64652;HTU21D;51062;45.120;37.660;2023-12-22T02:00:48;10.94;93.84
64652;HTU21D;51062;45.120;37.660;2023-12-22T02:03:14;10.89;93.75
64652;HTU21D;51062;45.120;37.660;2023-12-22T02:05:42;10.87;93.75
64652;HTU21D;51062;45.120;37.660;2023-12-22T02:08:08;10.85;93.71
64652;HTU21D;51062;45.120;37.660;2023-12-22T02:10:34;10.81;93.66
64652;HTU21D;51062;45.120;37.660;2023-12-22T02:13:00;10.82;93.79
64652;HTU21D;51062;45.120;37.660;2023-12-22T02:15:26;10.80;93.78
64652;HTU21D;51062;45.120;37.660;2023-12-22T02:18:04;10.81;93.91
64652;HTU21D;51062;45.120;37.660;2023-12-22T02:20:32;10.84;94.11
64652;HTU21D;51062;45.120;37.660;2023-12-22T02:22:59;10.90;94.24
64652;HTU21D;51062;45.120;37.660;2023-12-22T02:25:25;10.93;94.30
64652;HTU21D;51062;45.120;37.660;2023-12-22T02:27:53;10.95;94.33
64652;HTU21D;51062;45.120;37.660;2023-12-22T02:30:24;10.98;94.41
64652;HTU21D;51062;45.120;37.660;2023-12-22T02:32:51;11.03;94.54
64652;HTU21D;51062;45.120;37.660;2023-12-22T02:35:19;11.05;94.54
64652;HTU21D;51062;45.120;37.660;2023-12-22T02:37:46;11.09;94.67
64652;HTU21D;51062;45.120;37.660;2023-12-22T02:40:12;11.17;94.94
64652;HTU21D;51062;45.120;37.660;2023-12-22T02:42:39;11.28;95.10
64652;HTU21D;51062;45.120;37.660;2023-12-22T02:45:05;11.34;95.19
64652;HTU21D;51062;45.120;37.660;2023-12-22T02:47:31;11.40;95.22
64652;HTU21D;51062;45.120;37.660;2023-12-22T02:50:00;11.44;95.33
64652;HTU21D;51062;45.120;37.660;2023-12-22T02:52:26;11.55;95.46
64652;HTU21D;51062;45.120;37.660;2023-12-22T02:54:52;11.66;95.52
64652;HTU21D;51062;45.120;37.660;2023-12-22T02:57:18;11.72;95.58
64652;HTU21D;51062;45.120;37.660;2023-12-22T02:59:44;11.78;95.64
64652;HTU21D;51062;45.120;37.660;2023-12-22T03:02:10;11.84;95.70
64652;HTU21D;51062;45.120;37.660;2023-12-22T03:04:36;11.89;95.76
64652;HTU21D;51062;45.120;37.660;2023-12-22T03:07:02;11.91;95.79
64652;HTU21D;51062;45.120;37.660;2023-12-22T03:09:28;11.93;95.82
64652;HTU21D;51062;45.120;37.660;2023-12-22T03:11:54;11.91;95.84
64652;HTU21D;51062;45.120;37.660;2023-12-22T03:14:22;11.90;95.87
64652;HTU21D;51062;45.120;37.660;2023-12-22T03:16:47;11.88;95.89
64652;HTU21D;51062;45.120;37.660;2023-12-22T03:19:13;11.87;95.91
64652;HTU21D;51062;45.120;37.660;2023-12-22T03:21:39;11.87;95.93
64652;HTU21D;51062;45.120;37.660;2023-12-22T03:24:05;11.85;95.91
64652;HTU21D;51062;45.120;37.660;2023-12-22T03:26:31;11.83;95.94
64652;HTU21D;51062;45.120;37.660;2023-12-22T03:28:57;11.82;95.90
64652;HTU21D;51062;45.120;37.660;2023-12-22T03:31:23;11.81;95.87
64652;HTU21D;51062;45.120;37.660;2023-12-22T03:33:49;11.75;95.80
64652;HTU21D;51062;45.120;37.660;2023-12-22T03:36:15;11.73;95.83
64652;HTU21D;51062;45.120;37.660;2023-12-22T03:38:41;11.72;95.74
64652;HTU21D;51062;45.120;37.660;2023-12-22T03:41:07;11.69;95.72
64652;HTU21D;51062;45.120;37.660;2023-12-22T03:43:32;11.67;95.65
64652;HTU21D;51062;45.120;37.660;2023-12-22T03:45:59;11.66;95.64
64652;HTU21D;51062;45.120;37.660;2023-12-22T03:48:25;11.66;95.63
64652;HTU21D;51062;45.120;37.660;2023-12-22T03:50:51;11.64;95.62
64652;HTU21D;51062;45.120;37.660;2023-12-22T03:53:17;0.00;95.65
64652;HTU21D;51062;45.120;37.660;2023-12-22T03:55:43;11.66;95.65
64652;HTU21D;51062;45.120;37.660;2023-12-22T03:58:09;11.67;95.66
64652;HTU21D;51062;45.120;37.660;2023-12-22T04:00:35;11.68;95.65
64652;HTU21D;51062;45.120;37.660;2023-12-22T04:03:01;11.66;95.62
64652;HTU21D;51062;45.120;37.660;2023-12-22T04:05:28;11.66;95.62
64652;HTU21D;51062;45.120;37.660;2023-12-22T04:07:53;11.67;95.64
64652;HTU21D;51062;45.120;37.660;2023-12-22T04:10:19;11.67;95.64
64652;HTU21D;51062;45.120;37.660;2023-12-22T04:12:45;11.66;95.59
64652;HTU21D;51062;45.120;37.660;2023-12-22T04:15:11;11.64;95.60
64652;HTU21D;51062;45.120;37.660;2023-12-22T04:17:38;11.66;95.62
64652;HTU21D;51062;45.120;37.660;2023-12-22T04:20:05;11.64;95.56
64652;HTU21D;51062;45.120;37.660;2023-12-22T04:22:31;11.63;95.49
64652;HTU21D;51062;45.120;37.660;2023-12-22T04:24:57;11.61;95.52
64652;HTU21D;51062;45.120;37.660;2023-12-22T04:27:23;11.61;95.51
64652;HTU21D;51062;45.120;37.660;2023-12-22T04:29:49;11.61;95.51
64652;HTU21D;51062;45.120;37.660;2023-12-22T04:32:15;0.00;95.49
64652;HTU21D;51062;45.120;37.660;2023-12-22T04:34:41;11.61;95.47
64652;HTU21D;51062;45.120;37.660;2023-12-22T04:37:07;11.60;95.48
64652;HTU21D;51062;45.120;37.660;2023-12-22T04:39:33;11.63;95.52
64652;HTU21D;51062;45.120;37.660;2023-12-22T04:41:59;11.64;95.50
64652;HTU21D;51062;45.120;37.660;2023-12-22T04:44:25;11.66;95.52
64652;HTU21D;51062;45.120;37.660;2023-12-22T04:46:51;11.66;95.52
64652;HTU21D;51062;45.120;37.660;2023-12-22T04:49:17;11.67;95.55
64652;HTU21D;51062;45.120;37.660;2023-12-22T04:51:44;11.69;95.63
64652;HTU21D;51062;45.120;37.660;2023-12-22T04:54:10;11.72;95.64
64652;HTU21D;51062;45.120;37.660;2023-12-22T04:56:36;11.72;95.64
64652;HTU21D;51062;45.120;37.660;2023-12-22T04:59:02;11.74;95.59
64652;HTU21D;51062;45.120;37.660;2023-12-22T05:01:28;11.76;95.66
64652;HTU21D;51062;45.120;37.660;2023-12-22T05:03:54;11.78;95.72
64652;HTU21D;51062;45.120;37.660;2023-12-22T05:06:20;11.81;95.73
64652;HTU21D;51062;45.120;37.660;2023-12-22T05:08:46;11.83;95.73
64652;HTU21D;51062;45.120;37.660;2023-12-22T05:11:12;11.84;95.76
64652;HTU21D;51062;45.120;37.660;2023-12-22T05:13:38;11.86;95.75
64652;HTU21D;51062;45.120;37.660;2023-12-22T05:16:04;11.87;95.75
64652;HTU21D;51062;45.120;37.660;2023-12-22T05:18:30;11.89;95.79
64652;HTU21D;51062;45.120;37.660;2023-12-22T05:20:56;11.92;95.81
64652;HTU21D;51062;45.120;37.660;2023-12-22T05:23:22;11.94;95.86
64652;HTU21D;51062;45.120;37.660;2023-12-22T05:25:48;11.98;95.84
64652;HTU21D;51062;45.120;37.660;2023-12-22T05:28:14;11.98;95.82
64652;HTU21D;51062;45.120;37.660;2023-12-22T05:30:40;11.98;95.81
64652;HTU21D;51062;45.120;37.660;2023-12-22T05:33:06;11.97;95.78
64652;HTU21D;51062;45.120;37.660;2023-12-22T05:35:32;11.99;95.77
64652;HTU21D;51062;45.120;37.660;2023-12-22T05:37:58;11.97;95.75
64652;HTU21D;51062;45.120;37.660;2023-12-22T05:40:24;11.98;95.74
64652;HTU21D;51062;45.120;37.660;2023-12-22T05:42:49;12.00;95.73
64652;HTU21D;51062;45.120;37.660;2023-12-22T05:45:15;12.01;95.74
64652;HTU21D;51062;45.120;37.660;2023-12-22T05:47:41;12.01;95.75
64652;HTU21D;51062;45.120;37.660;2023-12-22T05:50:07;12.03;95.78
64652;HTU21D;51062;45.120;37.660;2023-12-22T05:52:33;12.06;95.80
64652;HTU21D;51062;45.120;37.660;2023-12-22T05:54:59;12.10;95.81
64652;HTU21D;51062;45.120;37.660;2023-12-22T05:57:25;12.14;95.88
64652;HTU21D;51062;45.120;37.660;2023-12-22T05:59:51;12.18;95.91
64652;HTU21D;51062;45.120;37.660;2023-12-22T06:02:18;12.20;95.89
64652;HTU21D;51062;45.120;37.660;2023-12-22T06:04:44;12.18;95.88
64652;HTU21D;51062;45.120;37.660;2023-12-22T06:07:10;12.17;95.87
64652;HTU21D;51062;45.120;37.660;2023-12-22T06:09:36;12.16;95.86
64652;HTU21D;51062;45.120;37.660;2023-12-22T06:12:02;12.16;95.84
64652;HTU21D;51062;45.120;37.660;2023-12-22T06:14:28;12.17;95.84
64652;HTU21D;51062;45.120;37.660;2023-12-22T06:16:54;12.15;95.81
64652;HTU21D;51062;45.120;37.660;2023-12-22T06:19:23;12.14;95.78
64652;HTU21D;51062;45.120;37.660;2023-12-22T06:21:50;12.13;95.75
64652;HTU21D;51062;45.120;37.660;2023-12-22T06:24:16;12.12;95.73
64652;HTU21D;51062;45.120;37.660;2023-12-22T06:26:42;12.11;95.72
64652;HTU21D;51062;45.120;37.660;2023-12-22T06:29:08;12.12;95.72
64652;HTU21D;51062;45.120;37.660;2023-12-22T06:31:35;12.14;95.74
64652;HTU21D;51062;45.120;37.660;2023-12-22T06:34:01;12.16;95.76
64652;HTU21D;51062;45.120;37.660;2023-12-22T06:36:27;12.19;95.81
64652;HTU21D;51062;45.120;37.660;2023-12-22T06:38:54;12.21;95.85
64652;HTU21D;51062;45.120;37.660;2023-12-22T06:41:26;12.25;95.90
64652;HTU21D;51062;45.120;37.660;2023-12-22T06:43:53;12.30;95.94
64652;HTU21D;51062;45.120;37.660;2023-12-22T06:46:19;12.37;95.97
64652;HTU21D;51062;45.120;37.660;2023-12-22T06:48:45;12.44;96.01
64652;HTU21D;51062;45.120;37.660;2023-12-22T06:51:18;12.51;96.01
64652;HTU21D;51062;45.120;37.660;2023-12-22T06:53:45;12.57;96.03
64652;HTU21D;51062;45.120;37.660;2023-12-22T06:56:15;12.62;96.07
64652;HTU21D;51062;45.120;37.660;2023-12-22T06:58:41;12.65;96.10
64652;HTU21D;51062;45.120;37.660;2023-12-22T07:01:06;12.69;96.13
64652;HTU21D;51062;45.120;37.660;2023-12-22T07:03:32;12.71;96.17
64652;HTU21D;51062;45.120;37.660;2023-12-22T07:05:58;12.73;96.21
64652;HTU21D;51062;45.120;37.660;2023-12-22T07:08:24;12.75;96.23
64652;HTU21D;51062;45.120;37.660;2023-12-22T07:10:50;12.77;96.24
64652;HTU21D;51062;45.120;37.660;2023-12-22T07:13:16;12.77;96.26
64652;HTU21D;51062;45.120;37.660;2023-12-22T07:15:42;12.79;96.28
64652;HTU21D;51062;45.120;37.660;2023-12-22T07:18:08;12.85;96.28
64652;HTU21D;51062;45.120;37.660;2023-12-22T07:20:34;12.89;96.29
64652;HTU21D;51062;45.120;37.660;2023-12-22T07:23:00;12.94;96.29
64652;HTU21D;51062;45.120;37.660;2023-12-22T07:25:26;12.99;96.23
64652;HTU21D;51062;45.120;37.660;2023-12-22T07:27:52;13.06;96.20
64652;HTU21D;51062;45.120;37.660;2023-12-22T07:30:18;13.11;96.17
64652;HTU21D;51062;45.120;37.660;2023-12-22T07:32:44;13.20;96.10
64652;HTU21D;51062;45.120;37.660;2023-12-22T07:35:12;13.29;95.97
64652;HTU21D;51062;45.120;37.660;2023-12-22T07:37:38;13.38;95.86
64652;HTU21D;51062;45.120;37.660;2023-12-22T07:40:05;13.50;95.65
64652;HTU21D;51062;45.120;37.660;2023-12-22T07:42:31;13.63;95.51
64652;HTU21D;51062;45.120;37.660;2023-12-22T07:44:57;13.76;95.26
64652;HTU21D;51062;45.120;37.660;2023-12-22T07:47:23;13.85;95.16
64652;HTU21D;51062;45.120;37.660;2023-12-22T07:49:49;13.90;95.15
64652;HTU21D;51062;45.120;37.660;2023-12-22T07:52:15;13.94;95.17
64652;HTU21D;51062;45.120;37.660;2023-12-22T07:54:41;13.97;95.28
64652;HTU21D;51062;45.120;37.660;2023-12-22T07:57:07;14.00;95.25
64652;HTU21D;51062;45.120;37.660;2023-12-22T07:59:33;14.08;95.23
64652;HTU21D;51062;45.120;37.660;2023-12-22T08:01:59;14.18;95.10
64652;HTU21D;51062;45.120;37.660;2023-12-22T08:04:25;14.23;94.94
64652;HTU21D;51062;45.120;37.660;2023-12-22T08:06:51;14.27;94.88
64652;HTU21D;51062;45.120;37.660;2023-12-22T08:09:17;14.30;94.84
64652;HTU21D;51062;45.120;37.660;2023-12-22T08:11:43;14.30;94.92
64652;HTU21D;51062;45.120;37.660;2023-12-22T08:14:12;14.32;94.98
64652;HTU21D;51062;45.120;37.660;2023-12-22T08:16:38;14.35;94.94
64652;HTU21D;51062;45.120;37.660;2023-12-22T08:19:03;14.37;94.98
64652;HTU21D;51062;45.120;37.660;2023-12-22T08:21:29;14.38;95.02
64652;HTU21D;51062;45.120;37.660;2023-12-22T08:23:55;14.47;94.85
64652;HTU21D;51062;45.120;37.660;2023-12-22T08:26:21;14.52;94.78
64652;HTU21D;51062;45.120;37.660;2023-12-22T08:28:47;14.52;94.83
64652;HTU21D;51062;45.120;37.660;2023-12-22T08:31:13;14.53;94.98
64652;HTU21D;51062;45.120;37.660;2023-12-22T08:33:39;14.56;95.02
64652;HTU21D;51062;45.120;37.660;2023-12-22T08:36:07;14.56;95.06
64652;HTU21D;51062;45.120;37.660;2023-12-22T08:38:33;14.59;95.06
64652;HTU21D;51062;45.120;37.660;2023-12-22T08:40:59;14.58;95.17
64652;HTU21D;51062;45.120;37.660;2023-12-22T08:43:25;14.57;95.29
64652;HTU21D;51062;45.120;37.660;2023-12-22T08:45:50;14.55;95.40
64652;HTU21D;51062;45.120;37.660;2023-12-22T08:48:16;14.52;95.51
64652;HTU21D;51062;45.120;37.660;2023-12-22T08:50:42;14.47;95.64
64652;HTU21D;51062;45.120;37.660;2023-12-22T08:53:08;14.41;95.75
64652;HTU21D;51062;45.120;37.660;2023-12-22T08:55:34;14.37;95.85
64652;HTU21D;51062;45.120;37.660;2023-12-22T08:58:00;14.32;95.94
64652;HTU21D;51062;45.120;37.660;2023-12-22T09:00:26;14.26;96.01
64652;HTU21D;51062;45.120;37.660;2023-12-22T09:02:52;14.24;96.07
64652;HTU21D;51062;45.120;37.660;2023-12-22T09:05:19;14.20;96.10
64652;HTU21D;51062;45.120;37.660;2023-12-22T09:07:46;14.20;96.13
64652;HTU21D;51062;45.120;37.660;2023-12-22T09:10:11;14.17;96.14
64652;HTU21D;51062;45.120;37.660;2023-12-22T09:12:38;14.15;96.16
64652;HTU21D;51062;45.120;37.660;2023-12-22T09:15:04;14.13;96.16
64652;HTU21D;51062;45.120;37.660;2023-12-22T09:17:30;14.13;96.19
64652;HTU21D;51062;45.120;37.660;2023-12-22T09:19:56;14.13;96.21
64652;HTU21D;51062;45.120;37.660;2023-12-22T09:22:22;14.15;96.20
64652;HTU21D;51062;45.120;37.660;2023-12-22T09:24:48;14.15;96.19
64652;HTU21D;51062;45.120;37.660;2023-12-22T09:27:14;14.14;96.21
64652;HTU21D;51062;45.120;37.660;2023-12-22T09:29:40;14.13;96.22
64652;HTU21D;51062;45.120;37.660;2023-12-22T09:32:06;14.12;96.25
64652;HTU21D;51062;45.120;37.660;2023-12-22T09:34:32;14.12;96.27
64652;HTU21D;51062;45.120;37.660;2023-12-22T09:36:58;14.12;96.29
64652;HTU21D;51062;45.120;37.660;2023-12-22T09:39:24;14.14;96.29
64652;HTU21D;51062;45.120;37.660;2023-12-22T09:41:50;14.20;96.26
64652;HTU21D;51062;45.120;37.660;2023-12-22T09:44:17;14.23;96.24
64652;HTU21D;51062;45.120;37.660;2023-12-22T09:46:45;14.25;96.22
64652;HTU21D;51062;45.120;37.660;2023-12-22T09:49:10;14.29;96.20
64652;HTU21D;51062;45.120;37.660;2023-12-22T09:51:37;14.30;96.23
64652;HTU21D;51062;45.120;37.660;2023-12-22T09:54:04;14.34;96.24
64652;HTU21D;51062;45.120;37.660;2023-12-22T09:56:30;14.38;96.25
64652;HTU21D;51062;45.120;37.660;2023-12-22T09:58:56;14.39;96.26
64652;HTU21D;51062;45.120;37.660;2023-12-22T10:01:22;14.41;96.27
64652;HTU21D;51062;45.120;37.660;2023-12-22T10:03:49;14.41;96.29
64652;HTU21D;51062;45.120;37.660;2023-12-22T10:06:15;14.42;96.31
64652;HTU21D;51062;45.120;37.660;2023-12-22T10:08:43;14.44;96.33
64652;HTU21D;51062;45.120;37.660;2023-12-22T10:11:09;14.47;96.33
64652;HTU21D;51062;45.120;37.660;2023-12-22T10:13:36;14.48;96.34
64652;HTU21D;51062;45.120;37.660;2023-12-22T10:16:02;14.48;96.36
64652;HTU21D;51062;45.120;37.660;2023-12-22T10:18:29;14.53;96.37
64652;HTU21D;51062;45.120;37.660;2023-12-22T10:20:55;14.55;96.34
64652;HTU21D;51062;45.120;37.660;2023-12-22T10:23:21;14.60;96.32
64652;HTU21D;51062;45.120;37.660;2023-12-22T10:25:47;14.63;96.31
64652;HTU21D;51062;45.120;37.660;2023-12-22T10:28:13;14.65;96.29
64652;HTU21D;51062;45.120;37.660;2023-12-22T10:30:40;14.64;96.33
64652;HTU21D;51062;45.120;37.660;2023-12-22T10:33:06;14.64;96.36
64652;HTU21D;51062;45.120;37.660;2023-12-22T10:35:32;14.63;96.39
64652;HTU21D;51062;45.120;37.660;2023-12-22T10:37:58;14.63;96.40
64652;HTU21D;51062;45.120;37.660;2023-12-22T10:40:25;14.62;96.43
64652;HTU21D;51062;45.120;37.660;2023-12-22T10:42:51;14.62;96.46
64652;HTU21D;51062;45.120;37.660;2023-12-22T10:45:20;14.60;96.46
64652;HTU21D;51062;45.120;37.660;2023-12-22T10:47:48;14.62;96.47
64652;HTU21D;51062;45.120;37.660;2023-12-22T10:50:16;14.65;96.49
64652;HTU21D;51062;45.120;37.660;2023-12-22T10:52:48;14.68;96.46
64652;HTU21D;51062;45.120;37.660;2023-12-22T10:55:15;14.67;96.46
64652;HTU21D;51062;45.120;37.660;2023-12-22T10:57:41;14.69;96.46
64652;HTU21D;51062;45.120;37.660;2023-12-22T11:00:07;14.70;96.47
64652;HTU21D;51062;45.120;37.660;2023-12-22T11:02:33;14.70;96.48
64652;HTU21D;51062;45.120;37.660;2023-12-22T11:05:04;14.69;96.49
64652;HTU21D;51062;45.120;37.660;2023-12-22T11:07:34;14.69;96.49
64652;HTU21D;51062;45.120;37.660;2023-12-22T11:10:05;14.69;96.51
64652;HTU21D;51062;45.120;37.660;2023-12-22T11:12:38;14.71;96.51
64652;HTU21D;51062;45.120;37.660;2023-12-22T11:15:04;14.74;96.51
64652;HTU21D;51062;45.120;37.660;2023-12-22T11:17:33;14.75;96.52
64652;HTU21D;51062;45.120;37.660;2023-12-22T11:20:00;14.79;96.47
64652;HTU21D;51062;45.120;37.660;2023-12-22T11:22:28;14.82;96.45
64652;HTU21D;51062;45.120;37.660;2023-12-22T11:24:54;14.84;96.40
64652;HTU21D;51062;45.120;37.660;2023-12-22T11:27:22;14.85;96.41
64652;HTU21D;51062;45.120;37.660;2023-12-22T11:29:49;14.84;96.45
64652;HTU21D;51062;45.120;37.660;2023-12-22T11:32:16;14.86;96.46
64652;HTU21D;51062;45.120;37.660;2023-12-22T11:34:45;14.88;96.45
64652;HTU21D;51062;45.120;37.660;2023-12-22T11:37:12;14.92;96.44
64652;HTU21D;51062;45.120;37.660;2023-12-22T11:39:41;14.92;96.46
64652;HTU21D;51062;45.120;37.660;2023-12-22T11:42:23;14.89;96.46
64652;HTU21D;51062;45.120;37.660;2023-12-22T11:44:50;14.86;96.53
64652;HTU21D;51062;45.120;37.660;2023-12-22T11:47:16;14.84;96.56
64652;HTU21D;51062;45.120;37.660;2023-12-22T11:49:42;14.81;96.58
64652;HTU21D;51062;45.120;37.660;2023-12-22T11:52:14;14.75;96.59
64652;HTU21D;51062;45.120;37.660;2023-12-22T11:59:56;14.60;96.65
64652;HTU21D;51062;45.120;37.660;2023-12-22T12:02:23;14.55;96.62
64652;HTU21D;51062;45.120;37.660;2023-12-22T12:04:50;14.48;96.59
64652;HTU21D;51062;45.120;37.660;2023-12-22T12:13:05;14.23;96.42
64652;HTU21D;51062;45.120;37.660;2023-12-22T12:15:31;14.17;96.38
64652;HTU21D;51062;45.120;37.660;2023-12-22T12:17:58;14.10;96.30
64652;HTU21D;51062;45.120;37.660;2023-12-22T12:20:24;14.06;96.23
64652;HTU21D;51062;45.120;37.660;2023-12-22T12:22:50;13.98;96.17
64652;HTU21D;51062;45.120;37.660;2023-12-22T12:25:17;13.95;96.13
64652;HTU21D;51062;45.120;37.660;2023-12-22T12:27:45;13.91;96.10
64652;HTU21D;51062;45.120;37.660;2023-12-22T12:30:12;13.86;96.07
64652;HTU21D;51062;45.120;37.660;2023-12-22T12:32:41;13.84;96.04
64652;HTU21D;51062;45.120;37.660;2023-12-22T12:35:07;13.82;96.01
64652;HTU21D;51062;45.120;37.660;2023-12-22T12:37:33;13.79;95.97
64652;HTU21D;51062;45.120;37.660;2023-12-22T12:40:00;13.76;95.91
64652;HTU21D;51062;45.120;37.660;2023-12-22T12:42:28;13.71;95.85
64652;HTU21D;51062;45.120;37.660;2023-12-22T12:44:55;13.68;95.80
64652;HTU21D;51062;45.120;37.660;2023-12-22T12:47:21;13.64;95.75
64652;HTU21D;51062;45.120;37.660;2023-12-22T12:49:47;13.61;95.72
64652;HTU21D;51062;45.120;37.660;2023-12-22T12:52:21;13.58;95.63
64652;HTU21D;51062;45.120;37.660;2023-12-22T12:54:47;13.53;95.60
64652;HTU21D;51062;45.120;37.660;2023-12-22T12:57:14;13.49;95.52
64652;HTU21D;51062;45.120;37.660;2023-12-22T12:59:43;13.46;95.46
64652;HTU21D;51062;45.120;37.660;2023-12-22T13:02:09;13.43;95.37
64652;HTU21D;51062;45.120;37.660;2023-12-22T13:04:38;13.39;95.32
64652;HTU21D;51062;45.120;37.660;2023-12-22T13:07:04;13.35;95.25
64652;HTU21D;51062;45.120;37.660;2023-12-22T13:09:33;13.33;95.19
64652;HTU21D;51062;45.120;37.660;2023-12-22T13:12:00;13.29;95.13
64652;HTU21D;51062;45.120;37.660;2023-12-22T13:14:26;13.25;95.10
64652;HTU21D;51062;45.120;37.660;2023-12-22T13:16:55;13.23;95.07
64652;HTU21D;51062;45.120;37.660;2023-12-22T13:19:25;13.20;95.04
64652;HTU21D;51062;45.120;37.660;2023-12-22T13:21:54;13.18;94.97
64652;HTU21D;51062;45.120;37.660;2023-12-22T13:24:20;13.15;94.89
64652;HTU21D;51062;45.120;37.660;2023-12-22T13:26:46;13.11;94.85
64652;HTU21D;51062;45.120;37.660;2023-12-22T13:29:12;13.08;94.81
64652;HTU21D;51062;45.120;37.660;2023-12-22T13:31:40;13.06;94.78
64652;HTU21D;51062;45.120;37.660;2023-12-22T13:34:09;13.05;94.78
64652;HTU21D;51062;45.120;37.660;2023-12-22T13:36:36;13.02;94.78
64652;HTU21D;51062;45.120;37.660;2023-12-22T13:39:05;13.00;94.76
64652;HTU21D;51062;45.120;37.660;2023-12-22T13:41:35;12.97;94.72
64652;HTU21D;51062;45.120;37.660;2023-12-22T13:44:04;12.94;94.65
64652;HTU21D;51062;45.120;37.660;2023-12-22T13:46:30;12.91;94.63
64652;HTU21D;51062;45.120;37.660;2023-12-22T13:48:57;12.90;94.63
64652;HTU21D;51062;45.120;37.660;2023-12-22T13:51:23;12.89;94.64
64652;HTU21D;51062;45.120;37.660;2023-12-22T13:53:50;12.87;94.58
64652;HTU21D;51062;45.120;37.660;2023-12-22T13:56:16;12.85;94.54
64652;HTU21D;51062;45.120;37.660;2023-12-22T13:58:45;12.81;94.48
64652;HTU21D;51062;45.120;37.660;2023-12-22T14:01:17;12.78;94.40
64652;HTU21D;51062;45.120;37.660;2023-12-22T14:03:43;12.73;94.29
64652;HTU21D;51062;45.120;37.660;2023-12-22T14:06:11;12.70;94.22
64652;HTU21D;51062;45.120;37.660;2023-12-22T14:08:40;12.66;94.15
64652;HTU21D;51062;45.120;37.660;2023-12-22T14:11:07;12.62;94.14
64652;HTU21D;51062;45.120;37.660;2023-12-22T14:13:33;12.60;94.07
64652;HTU21D;51062;45.120;37.660;2023-12-22T14:16:07;12.59;94.04
64652;HTU21D;51062;45.120;37.660;2023-12-22T14:18:33;12.57;93.98
64652;HTU21D;51062;45.120;37.660;2023-12-22T14:20:58;12.55;93.91
64652;HTU21D;51062;45.120;37.660;2023-12-22T14:23:25;12.51;93.83
64652;HTU21D;51062;45.120;37.660;2023-12-22T14:25:51;12.49;93.78
64652;HTU21D;51062;45.120;37.660;2023-12-22T14:28:17;12.46;93.71
64652;HTU21D;51062;45.120;37.660;2023-12-22T14:30:43;12.41;93.68
64652;HTU21D;51062;45.120;37.660;2023-12-22T14:33:08;12.38;93.64
64652;HTU21D;51062;45.120;37.660;2023-12-22T14:35:35;12.35;93.62
64652;HTU21D;51062;45.120;37.660;2023-12-22T14:38:01;12.32;93.57
64652;HTU21D;51062;45.120;37.660;2023-12-22T14:40:27;12.29;93.53
64652;HTU21D;51062;45.120;37.660;2023-12-22T14:42:53;12.27;93.47
64652;HTU21D;51062;45.120;37.660;2023-12-22T14:45:19;12.23;93.41
64652;HTU21D;51062;45.120;37.660;2023-12-22T14:47:45;12.21;93.37
64652;HTU21D;51062;45.120;37.660;2023-12-22T14:50:11;12.19;93.34
64652;HTU21D;51062;45.120;37.660;2023-12-22T14:52:37;12.17;93.33
64652;HTU21D;51062;45.120;37.660;2023-12-22T14:55:03;12.14;93.31
64652;HTU21D;51062;45.120;37.660;2023-12-22T14:57:32;12.13;93.31
64652;HTU21D;51062;45.120;37.660;2023-12-22T14:59:59;12.10;93.34
64652;HTU21D;51062;45.120;37.660;2023-12-22T15:02:25;12.10;93.43
64652;HTU21D;51062;45.120;37.660;2023-12-22T15:04:51;12.08;93.43
64652;HTU21D;51062;45.120;37.660;2023-12-22T15:07:18;12.06;93.43
64652;HTU21D;51062;45.120;37.660;2023-12-22T15:09:45;12.06;93.48